sensor_id;sensor_type;location;lat;lon;timestamp;P1;durP1;ratioP1;P2;durP2;ratioP2
44456;SDS011;30159;49.316;8.558;2024-01-30T00:01:47;6.10;;;4.50;;
44456;SDS011;30159;49.316;8.558;2024-01-30T00:04:14;7.47;;;5.20;;
44456;SDS011;30159;49.316;8.558;2024-01-30T00:06:41;6.83;;;4.97;;
44456;SDS011;30159;49.316;8.558;2024-01-30T00:09:09;5.87;;;4.83;;
44456;SDS011;30159;49.316;8.558;2024-01-30T00:11:36;9.13;;;3.47;;
44456;SDS011;30159;49.316;8.558;2024-01-30T00:14:03;5.90;;;3.87;;
44456;SDS011;30159;49.316;8.558;2024-01-30T00:16:29;5.07;;;4.30;;
44456;SDS011;30159;49.316;8.558;2024-01-30T00:18:56;7.00;;;3.60;;
44456;SDS011;30159;49.316;8.558;2024-01-30T00:21:23;4.97;;;3.60;;
44456;SDS011;30159;49.316;8.558;2024-01-30T00:23:50;3.80;;;3.50;;
44456;SDS011;30159;49.316;8.558;2024-01-30T00:26:18;3.87;;;3.53;;
44456;SDS011;30159;49.316;8.558;2024-01-30T00:28:45;4.83;;;3.40;;
44456;SDS011;30159;49.316;8.558;2024-01-30T00:31:12;5.63;;;4.23;;
44456;SDS011;30159;49.316;8.558;2024-01-30T00:33:39;6.07;;;4.00;;
44456;SDS011;30159;49.316;8.558;2024-01-30T00:36:06;4.53;;;4.07;;
44456;SDS011;30159;49.316;8.558;2024-01-30T00:38:33;5.50;;;3.80;;
44456;SDS011;30159;49.316;8.558;2024-01-30T00:41:00;4.33;;;3.90;;
44456;SDS011;30159;49.316;8.558;2024-01-30T00:43:29;6.20;;;3.77;;
44456;SDS011;30159;49.316;8.558;2024-01-30T00:45:56;4.77;;;3.43;;
44456;SDS011;30159;49.316;8.558;2024-01-30T00:48:23;4.30;;;3.90;;
44456;SDS011;30159;49.316;8.558;2024-01-30T00:50:50;7.70;;;4.20;;
44456;SDS011;30159;49.316;8.558;2024-01-30T00:53:16;5.07;;;4.17;;
44456;SDS011;30159;49.316;8.558;2024-01-30T00:55:43;7.90;;;4.03;;
44456;SDS011;30159;49.316;8.558;2024-01-30T00:58:10;4.47;;;3.57;;
44456;SDS011;30159;49.316;8.558;2024-01-30T01:00:38;3.90;;;3.43;;
44456;SDS011;30159;49.316;8.558;2024-01-30T01:03:05;6.63;;;4.33;;
44456;SDS011;30159;49.316;8.558;2024-01-30T01:05:32;5.43;;;4.30;;
44456;SDS011;30159;49.316;8.558;2024-01-30T01:07:58;5.87;;;4.07;;
44456;SDS011;30159;49.316;8.558;2024-01-30T01:10:25;6.10;;;3.87;;
44456;SDS011;30159;49.316;8.558;2024-01-30T01:12:52;5.10;;;3.57;;
44456;SDS011;30159;49.316;8.558;2024-01-30T01:15:19;6.17;;;3.97;;
44456;SDS011;30159;49.316;8.558;2024-01-30T01:17:47;5.90;;;4.70;;
44456;SDS011;30159;49.316;8.558;2024-01-30T01:20:14;3.93;;;3.67;;
44456;SDS011;30159;49.316;8.558;2024-01-30T01:22:40;3.83;;;3.50;;
44456;SDS011;30159;49.316;8.558;2024-01-30T01:25:09;11.50;;;4.83;;
44456;SDS011;30159;49.316;8.558;2024-01-30T01:27:36;5.17;;;4.00;;
44456;SDS011;30159;49.316;8.558;2024-01-30T01:30:06;4.07;;;3.60;;
44456;SDS011;30159;49.316;8.558;2024-01-30T01:32:35;4.17;;;3.60;;
44456;SDS011;30159;49.316;8.558;2024-01-30T01:35:03;4.83;;;3.87;;
44456;SDS011;30159;49.316;8.558;2024-01-30T01:37:31;4.47;;;4.10;;
44456;SDS011;30159;49.316;8.558;2024-01-30T01:39:58;9.37;;;5.00;;
44456;SDS011;30159;49.316;8.558;2024-01-30T01:42:24;4.67;;;4.27;;
44456;SDS011;30159;49.316;8.558;2024-01-30T01:44:51;5.50;;;3.50;;
44456;SDS011;30159;49.316;8.558;2024-01-30T01:47:18;4.97;;;3.97;;
44456;SDS011;30159;49.316;8.558;2024-01-30T01:49:44;8.43;;;4.50;;
44456;SDS011;30159;49.316;8.558;2024-01-30T01:52:13;7.63;;;4.87;;
44456;SDS011;30159;49.316;8.558;2024-01-30T01:54:39;6.37;;;4.83;;
44456;SDS011;30159;49.316;8.558;2024-01-30T01:57:06;6.57;;;5.63;;
44456;SDS011;30159;49.316;8.558;2024-01-30T01:59:33;6.30;;;4.37;;
44456;SDS011;30159;49.316;8.558;2024-01-30T02:02:00;7.43;;;4.10;;
44456;SDS011;30159;49.316;8.558;2024-01-30T02:04:29;4.23;;;3.83;;
44456;SDS011;30159;49.316;8.558;2024-01-30T02:06:56;7.63;;;4.17;;
44456;SDS011;30159;49.316;8.558;2024-01-30T02:09:24;8.10;;;5.43;;
44456;SDS011;30159;49.316;8.558;2024-01-30T02:11:51;5.83;;;4.50;;
44456;SDS011;30159;49.316;8.558;2024-01-30T02:14:18;6.20;;;5.63;;
44456;SDS011;30159;49.316;8.558;2024-01-30T02:16:44;6.50;;;4.77;;
44456;SDS011;30159;49.316;8.558;2024-01-30T02:19:11;5.80;;;4.87;;
44456;SDS011;30159;49.316;8.558;2024-01-30T02:21:39;6.27;;;5.20;;
44456;SDS011;30159;49.316;8.558;2024-01-30T02:24:05;5.33;;;3.67;;
44456;SDS011;30159;49.316;8.558;2024-01-30T02:26:32;6.43;;;5.07;;
44456;SDS011;30159;49.316;8.558;2024-01-30T02:28:59;6.23;;;4.13;;
44456;SDS011;30159;49.316;8.558;2024-01-30T02:31:25;8.63;;;4.23;;
44456;SDS011;30159;49.316;8.558;2024-01-30T02:33:52;4.70;;;4.30;;
44456;SDS011;30159;49.316;8.558;2024-01-30T02:36:19;8.97;;;4.73;;
44456;SDS011;30159;49.316;8.558;2024-01-30T02:38:47;6.50;;;4.63;;
44456;SDS011;30159;49.316;8.558;2024-01-30T02:41:13;7.30;;;4.63;;
44456;SDS011;30159;49.316;8.558;2024-01-30T02:43:40;10.27;;;5.47;;
44456;SDS011;30159;49.316;8.558;2024-01-30T02:46:07;13.07;;;5.40;;
44456;SDS011;30159;49.316;8.558;2024-01-30T02:48:33;5.13;;;3.57;;
44456;SDS011;30159;49.316;8.558;2024-01-30T02:51:00;4.80;;;3.60;;
44456;SDS011;30159;49.316;8.558;2024-01-30T02:53:27;8.47;;;4.57;;
44456;SDS011;30159;49.316;8.558;2024-01-30T02:55:55;5.20;;;3.50;;
44456;SDS011;30159;49.316;8.558;2024-01-30T02:58:21;4.63;;;3.60;;
44456;SDS011;30159;49.316;8.558;2024-01-30T03:00:48;8.03;;;5.20;;
44456;SDS011;30159;49.316;8.558;2024-01-30T03:03:14;5.07;;;4.47;;
44456;SDS011;30159;49.316;8.558;2024-01-30T03:05:41;9.07;;;4.80;;
44456;SDS011;30159;49.316;8.558;2024-01-30T03:08:07;6.90;;;3.80;;
44456;SDS011;30159;49.316;8.558;2024-01-30T03:10:34;7.40;;;4.40;;
44456;SDS011;30159;49.316;8.558;2024-01-30T03:13:02;6.43;;;4.20;;
44456;SDS011;30159;49.316;8.558;2024-01-30T03:15:29;6.33;;;3.93;;
44456;SDS011;30159;49.316;8.558;2024-01-30T03:17:56;13.83;;;3.80;;
44456;SDS011;30159;49.316;8.558;2024-01-30T03:20:23;4.63;;;4.20;;
44456;SDS011;30159;49.316;8.558;2024-01-30T03:22:50;6.73;;;4.83;;
44456;SDS011;30159;49.316;8.558;2024-01-30T03:25:16;4.80;;;3.53;;
44456;SDS011;30159;49.316;8.558;2024-01-30T03:27:43;7.83;;;4.13;;
44456;SDS011;30159;49.316;8.558;2024-01-30T03:30:11;4.93;;;4.17;;
44456;SDS011;30159;49.316;8.558;2024-01-30T03:32:38;4.80;;;4.13;;
44456;SDS011;30159;49.316;8.558;2024-01-30T03:35:05;4.93;;;4.40;;
44456;SDS011;30159;49.316;8.558;2024-01-30T03:37:32;10.27;;;4.50;;
44456;SDS011;30159;49.316;8.558;2024-01-30T03:39:58;9.13;;;4.93;;
44456;SDS011;30159;49.316;8.558;2024-01-30T03:42:28;7.37;;;3.77;;
44456;SDS011;30159;49.316;8.558;2024-01-30T03:44:55;8.00;;;4.43;;
44456;SDS011;30159;49.316;8.558;2024-01-30T03:47:24;5.47;;;4.80;;
44456;SDS011;30159;49.316;8.558;2024-01-30T03:49:50;5.00;;;4.53;;
44456;SDS011;30159;49.316;8.558;2024-01-30T03:52:17;7.37;;;4.07;;
44456;SDS011;30159;49.316;8.558;2024-01-30T03:54:44;4.80;;;3.53;;
44456;SDS011;30159;49.316;8.558;2024-01-30T03:57:10;6.90;;;3.93;;
44456;SDS011;30159;49.316;8.558;2024-01-30T03:59:37;3.60;;;3.20;;
44456;SDS011;30159;49.316;8.558;2024-01-30T04:02:04;5.33;;;3.63;;
44456;SDS011;30159;49.316;8.558;2024-01-30T04:04:32;6.40;;;4.10;;
44456;SDS011;30159;49.316;8.558;2024-01-30T04:06:58;4.97;;;4.50;;
44456;SDS011;30159;49.316;8.558;2024-01-30T04:09:25;4.07;;;3.53;;
44456;SDS011;30159;49.316;8.558;2024-01-30T04:11:53;6.23;;;4.10;;
44456;SDS011;30159;49.316;8.558;2024-01-30T04:14:20;6.40;;;4.50;;
44456;SDS011;30159;49.316;8.558;2024-01-30T04:16:47;5.63;;;4.40;;
44456;SDS011;30159;49.316;8.558;2024-01-30T04:19:13;7.90;;;5.20;;
44456;SDS011;30159;49.316;8.558;2024-01-30T04:21:41;3.77;;;3.13;;
44456;SDS011;30159;49.316;8.558;2024-01-30T04:24:08;4.87;;;3.57;;
44456;SDS011;30159;49.316;8.558;2024-01-30T04:26:34;7.73;;;5.27;;
44456;SDS011;30159;49.316;8.558;2024-01-30T04:29:01;5.03;;;3.93;;
44456;SDS011;30159;49.316;8.558;2024-01-30T04:31:28;8.73;;;3.07;;
44456;SDS011;30159;49.316;8.558;2024-01-30T04:33:55;3.10;;;2.87;;
44456;SDS011;30159;49.316;8.558;2024-01-30T04:36:21;5.50;;;4.70;;
44456;SDS011;30159;49.316;8.558;2024-01-30T04:38:49;4.63;;;4.20;;
44456;SDS011;30159;49.316;8.558;2024-01-30T04:41:16;16.00;;;5.00;;
44456;SDS011;30159;49.316;8.558;2024-01-30T04:43:42;13.30;;;4.87;;
44456;SDS011;30159;49.316;8.558;2024-01-30T04:46:09;4.77;;;3.57;;
44456;SDS011;30159;49.316;8.558;2024-01-30T04:48:36;4.50;;;3.73;;
44456;SDS011;30159;49.316;8.558;2024-01-30T04:51:02;9.77;;;3.97;;
44456;SDS011;30159;49.316;8.558;2024-01-30T04:53:29;4.50;;;3.20;;
44456;SDS011;30159;49.316;8.558;2024-01-30T04:55:57;4.37;;;3.90;;
44456;SDS011;30159;49.316;8.558;2024-01-30T04:58:24;10.30;;;4.63;;
44456;SDS011;30159;49.316;8.558;2024-01-30T05:00:51;8.23;;;4.40;;
44456;SDS011;30159;49.316;8.558;2024-01-30T05:03:17;5.87;;;3.67;;
44456;SDS011;30159;49.316;8.558;2024-01-30T05:05:44;4.07;;;3.43;;
44456;SDS011;30159;49.316;8.558;2024-01-30T05:08:10;6.97;;;4.50;;
44456;SDS011;30159;49.316;8.558;2024-01-30T05:10:37;4.90;;;4.20;;
44456;SDS011;30159;49.316;8.558;2024-01-30T05:13:05;4.33;;;3.93;;
44456;SDS011;30159;49.316;8.558;2024-01-30T05:15:32;5.33;;;3.07;;
44456;SDS011;30159;49.316;8.558;2024-01-30T05:17:58;3.90;;;3.60;;
44456;SDS011;30159;49.316;8.558;2024-01-30T05:20:25;6.63;;;4.10;;
44456;SDS011;30159;49.316;8.558;2024-01-30T05:22:55;3.47;;;3.17;;
44456;SDS011;30159;49.316;8.558;2024-01-30T05:25:21;5.73;;;3.63;;
44456;SDS011;30159;49.316;8.558;2024-01-30T05:27:48;5.13;;;3.73;;
44456;SDS011;30159;49.316;8.558;2024-01-30T05:30:16;3.77;;;3.17;;
44456;SDS011;30159;49.316;8.558;2024-01-30T05:32:43;4.33;;;3.50;;
44456;SDS011;30159;49.316;8.558;2024-01-30T05:35:10;7.57;;;4.57;;
44456;SDS011;30159;49.316;8.558;2024-01-30T05:37:37;4.93;;;4.20;;
44456;SDS011;30159;49.316;8.558;2024-01-30T05:40:04;6.57;;;3.90;;
44456;SDS011;30159;49.316;8.558;2024-01-30T05:42:32;3.70;;;3.27;;
44456;SDS011;30159;49.316;8.558;2024-01-30T05:44:58;13.40;;;5.03;;
44456;SDS011;30159;49.316;8.558;2024-01-30T05:47:26;10.37;;;4.77;;
44456;SDS011;30159;49.316;8.558;2024-01-30T05:49:53;4.30;;;3.90;;
44456;SDS011;30159;49.316;8.558;2024-01-30T05:52:19;5.00;;;4.37;;
44456;SDS011;30159;49.316;8.558;2024-01-30T05:54:46;5.20;;;4.37;;
44456;SDS011;30159;49.316;8.558;2024-01-30T05:57:13;7.80;;;4.53;;
44456;SDS011;30159;49.316;8.558;2024-01-30T05:59:39;4.20;;;4.00;;
44456;SDS011;30159;49.316;8.558;2024-01-30T06:02:06;5.43;;;4.00;;
44456;SDS011;30159;49.316;8.558;2024-01-30T06:04:34;5.70;;;3.87;;
44456;SDS011;30159;49.316;8.558;2024-01-30T06:07:01;5.50;;;3.23;;
44456;SDS011;30159;49.316;8.558;2024-01-30T06:09:27;7.73;;;5.27;;
44456;SDS011;30159;49.316;8.558;2024-01-30T06:11:54;4.30;;;3.90;;
44456;SDS011;30159;49.316;8.558;2024-01-30T06:14:21;5.53;;;4.97;;
44456;SDS011;30159;49.316;8.558;2024-01-30T06:16:48;7.60;;;4.13;;
44456;SDS011;30159;49.316;8.558;2024-01-30T06:19:14;6.47;;;3.40;;
44456;SDS011;30159;49.316;8.558;2024-01-30T06:21:42;4.93;;;3.47;;
44456;SDS011;30159;49.316;8.558;2024-01-30T06:24:10;6.17;;;4.30;;
44456;SDS011;30159;49.316;8.558;2024-01-30T06:26:37;5.43;;;4.57;;
44456;SDS011;30159;49.316;8.558;2024-01-30T06:29:04;7.03;;;4.90;;
44456;SDS011;30159;49.316;8.558;2024-01-30T06:31:30;5.20;;;4.70;;
44456;SDS011;30159;49.316;8.558;2024-01-30T06:33:57;4.70;;;4.13;;
44456;SDS011;30159;49.316;8.558;2024-01-30T06:36:24;9.57;;;3.90;;
44456;SDS011;30159;49.316;8.558;2024-01-30T06:38:52;7.40;;;3.73;;
44456;SDS011;30159;49.316;8.558;2024-01-30T06:41:18;5.33;;;3.97;;
44456;SDS011;30159;49.316;8.558;2024-01-30T06:43:45;7.00;;;4.03;;
44456;SDS011;30159;49.316;8.558;2024-01-30T06:46:12;5.53;;;3.70;;
44456;SDS011;30159;49.316;8.558;2024-01-30T06:48:39;7.77;;;4.60;;
44456;SDS011;30159;49.316;8.558;2024-01-30T06:51:06;6.27;;;4.80;;
44456;SDS011;30159;49.316;8.558;2024-01-30T06:53:33;6.03;;;5.03;;
44456;SDS011;30159;49.316;8.558;2024-01-30T06:56:02;8.60;;;4.00;;
44456;SDS011;30159;49.316;8.558;2024-01-30T06:58:29;6.00;;;4.53;;
44456;SDS011;30159;49.316;8.558;2024-01-30T07:00:55;16.80;;;5.20;;
44456;SDS011;30159;49.316;8.558;2024-01-30T07:03:22;4.67;;;4.17;;
44456;SDS011;30159;49.316;8.558;2024-01-30T07:05:49;6.37;;;4.20;;
44456;SDS011;30159;49.316;8.558;2024-01-30T07:08:16;5.00;;;4.07;;
44456;SDS011;30159;49.316;8.558;2024-01-30T07:10:43;4.43;;;4.07;;
44456;SDS011;30159;49.316;8.558;2024-01-30T07:13:11;6.17;;;4.57;;
44456;SDS011;30159;49.316;8.558;2024-01-30T07:15:38;5.63;;;5.13;;
44456;SDS011;30159;49.316;8.558;2024-01-30T07:18:05;5.73;;;5.10;;
44456;SDS011;30159;49.316;8.558;2024-01-30T07:20:32;9.80;;;4.90;;
44456;SDS011;30159;49.316;8.558;2024-01-30T07:23:00;7.10;;;4.80;;
44456;SDS011;30159;49.316;8.558;2024-01-30T07:25:27;8.53;;;5.07;;
44456;SDS011;30159;49.316;8.558;2024-01-30T07:27:54;5.43;;;4.20;;
44456;SDS011;30159;49.316;8.558;2024-01-30T07:30:22;8.60;;;5.43;;
44456;SDS011;30159;49.316;8.558;2024-01-30T07:32:49;6.30;;;5.03;;
44456;SDS011;30159;49.316;8.558;2024-01-30T07:35:16;8.43;;;6.00;;
44456;SDS011;30159;49.316;8.558;2024-01-30T07:37:43;7.10;;;4.67;;
44456;SDS011;30159;49.316;8.558;2024-01-30T07:40:09;6.70;;;4.73;;
44456;SDS011;30159;49.316;8.558;2024-01-30T07:42:36;5.83;;;4.20;;
44456;SDS011;30159;49.316;8.558;2024-01-30T07:45:03;7.00;;;5.13;;
44456;SDS011;30159;49.316;8.558;2024-01-30T07:47:32;5.60;;;3.73;;
44456;SDS011;30159;49.316;8.558;2024-01-30T07:49:58;6.53;;;4.70;;
44456;SDS011;30159;49.316;8.558;2024-01-30T07:52:25;9.53;;;6.00;;
44456;SDS011;30159;49.316;8.558;2024-01-30T07:54:52;9.60;;;5.67;;
44456;SDS011;30159;49.316;8.558;2024-01-30T07:57:18;9.07;;;5.73;;
44456;SDS011;30159;49.316;8.558;2024-01-30T07:59:45;7.77;;;5.10;;
44456;SDS011;30159;49.316;8.558;2024-01-30T08:02:12;6.77;;;4.57;;
44456;SDS011;30159;49.316;8.558;2024-01-30T08:04:40;8.10;;;5.80;;
44456;SDS011;30159;49.316;8.558;2024-01-30T08:07:07;11.50;;;6.30;;
44456;SDS011;30159;49.316;8.558;2024-01-30T08:09:36;6.63;;;5.23;;
44456;SDS011;30159;49.316;8.558;2024-01-30T08:12:03;10.53;;;5.60;;
44456;SDS011;30159;49.316;8.558;2024-01-30T08:14:31;10.10;;;6.80;;
44456;SDS011;30159;49.316;8.558;2024-01-30T08:16:57;8.27;;;6.30;;
44456;SDS011;30159;49.316;8.558;2024-01-30T08:19:24;10.33;;;5.40;;
44456;SDS011;30159;49.316;8.558;2024-01-30T08:21:52;9.87;;;6.10;;
44456;SDS011;30159;49.316;8.558;2024-01-30T08:24:19;5.83;;;5.10;;
44456;SDS011;30159;49.316;8.558;2024-01-30T08:26:46;10.40;;;6.37;;
44456;SDS011;30159;49.316;8.558;2024-01-30T08:29:12;7.27;;;6.23;;
44456;SDS011;30159;49.316;8.558;2024-01-30T08:31:39;12.30;;;6.50;;
44456;SDS011;30159;49.316;8.558;2024-01-30T08:34:05;8.03;;;6.87;;
44456;SDS011;30159;49.316;8.558;2024-01-30T08:36:32;6.80;;;5.70;;
44456;SDS011;30159;49.316;8.558;2024-01-30T08:39:00;13.33;;;6.73;;
44456;SDS011;30159;49.316;8.558;2024-01-30T08:41:27;8.80;;;6.00;;
44456;SDS011;30159;49.316;8.558;2024-01-30T08:43:53;5.83;;;5.30;;
44456;SDS011;30159;49.316;8.558;2024-01-30T08:46:20;9.33;;;6.70;;
44456;SDS011;30159;49.316;8.558;2024-01-30T08:48:47;6.90;;;6.10;;
44456;SDS011;30159;49.316;8.558;2024-01-30T08:51:14;6.20;;;4.97;;
44456;SDS011;30159;49.316;8.558;2024-01-30T08:53:40;7.20;;;6.47;;
44456;SDS011;30159;49.316;8.558;2024-01-30T08:56:09;9.50;;;6.00;;
44456;SDS011;30159;49.316;8.558;2024-01-30T08:58:36;7.27;;;6.40;;
44456;SDS011;30159;49.316;8.558;2024-01-30T09:01:02;11.03;;;6.90;;
44456;SDS011;30159;49.316;8.558;2024-01-30T09:03:30;9.13;;;6.67;;
44456;SDS011;30159;49.316;8.558;2024-01-30T09:05:57;8.37;;;6.30;;
44456;SDS011;30159;49.316;8.558;2024-01-30T09:08:23;10.00;;;6.70;;
44456;SDS011;30159;49.316;8.558;2024-01-30T09:10:49;8.13;;;7.40;;
44456;SDS011;30159;49.316;8.558;2024-01-30T09:13:18;11.43;;;7.37;;
44456;SDS011;30159;49.316;8.558;2024-01-30T09:15:44;9.37;;;6.60;;
44456;SDS011;30159;49.316;8.558;2024-01-30T09:18:11;7.43;;;5.70;;
44456;SDS011;30159;49.316;8.558;2024-01-30T09:20:38;11.10;;;6.60;;
44456;SDS011;30159;49.316;8.558;2024-01-30T09:23:04;9.03;;;5.70;;
44456;SDS011;30159;49.316;8.558;2024-01-30T09:25:31;13.87;;;6.70;;
44456;SDS011;30159;49.316;8.558;2024-01-30T09:27:59;11.53;;;6.43;;
44456;SDS011;30159;49.316;8.558;2024-01-30T09:30:27;6.00;;;5.60;;
44456;SDS011;30159;49.316;8.558;2024-01-30T09:32:53;12.13;;;6.17;;
44456;SDS011;30159;49.316;8.558;2024-01-30T09:35:20;6.80;;;5.63;;
44456;SDS011;30159;49.316;8.558;2024-01-30T09:37:47;9.53;;;5.87;;
44456;SDS011;30159;49.316;8.558;2024-01-30T09:40:13;10.43;;;6.90;;
44456;SDS011;30159;49.316;8.558;2024-01-30T09:42:44;7.03;;;5.87;;
44456;SDS011;30159;49.316;8.558;2024-01-30T09:45:13;10.37;;;7.87;;
44456;SDS011;30159;49.316;8.558;2024-01-30T09:47:42;5.93;;;5.40;;
44456;SDS011;30159;49.316;8.558;2024-01-30T09:50:10;8.57;;;5.47;;
44456;SDS011;30159;49.316;8.558;2024-01-30T09:52:38;7.00;;;6.30;;
44456;SDS011;30159;49.316;8.558;2024-01-30T09:55:05;5.90;;;5.30;;
44456;SDS011;30159;49.316;8.558;2024-01-30T09:57:33;8.50;;;5.90;;
44456;SDS011;30159;49.316;8.558;2024-01-30T10:00:00;9.57;;;6.70;;
44456;SDS011;30159;49.316;8.558;2024-01-30T10:02:27;18.37;;;7.07;;
44456;SDS011;30159;49.316;8.558;2024-01-30T10:04:55;5.93;;;5.33;;
44456;SDS011;30159;49.316;8.558;2024-01-30T10:07:22;10.43;;;5.93;;
44456;SDS011;30159;49.316;8.558;2024-01-30T10:09:49;7.47;;;6.63;;
44456;SDS011;30159;49.316;8.558;2024-01-30T10:12:15;9.33;;;7.10;;
44456;SDS011;30159;49.316;8.558;2024-01-30T10:14:42;7.83;;;6.93;;
44456;SDS011;30159;49.316;8.558;2024-01-30T10:17:09;6.87;;;6.23;;
44456;SDS011;30159;49.316;8.558;2024-01-30T10:19:37;13.63;;;6.60;;
44456;SDS011;30159;49.316;8.558;2024-01-30T10:22:06;12.50;;;7.73;;
44456;SDS011;30159;49.316;8.558;2024-01-30T10:24:33;13.73;;;7.30;;
44456;SDS011;30159;49.316;8.558;2024-01-30T10:27:00;13.20;;;7.13;;
44456;SDS011;30159;49.316;8.558;2024-01-30T10:29:27;7.57;;;6.27;;
44456;SDS011;30159;49.316;8.558;2024-01-30T10:31:57;11.93;;;7.10;;
44456;SDS011;30159;49.316;8.558;2024-01-30T10:34:24;13.70;;;7.73;;
44456;SDS011;30159;49.316;8.558;2024-01-30T10:36:53;10.23;;;7.83;;
44456;SDS011;30159;49.316;8.558;2024-01-30T10:39:34;9.70;;;7.30;;
44456;SDS011;30159;49.316;8.558;2024-01-30T10:42:05;7.53;;;6.10;;
44456;SDS011;30159;49.316;8.558;2024-01-30T10:44:35;10.10;;;7.13;;
44456;SDS011;30159;49.316;8.558;2024-01-30T10:47:06;9.83;;;7.97;;
44456;SDS011;30159;49.316;8.558;2024-01-30T10:49:37;7.93;;;7.17;;
44456;SDS011;30159;49.316;8.558;2024-01-30T10:52:05;8.37;;;6.90;;
44456;SDS011;30159;49.316;8.558;2024-01-30T10:54:35;8.70;;;7.30;;
44456;SDS011;30159;49.316;8.558;2024-01-30T10:57:04;10.30;;;8.03;;
44456;SDS011;30159;49.316;8.558;2024-01-30T10:59:31;9.90;;;8.63;;
44456;SDS011;30159;49.316;8.558;2024-01-30T11:01:59;7.27;;;6.07;;
44456;SDS011;30159;49.316;8.558;2024-01-30T11:04:26;9.00;;;6.80;;
44456;SDS011;30159;49.316;8.558;2024-01-30T11:06:53;8.40;;;6.33;;
44456;SDS011;30159;49.316;8.558;2024-01-30T11:09:20;8.93;;;6.00;;
44456;SDS011;30159;49.316;8.558;2024-01-30T11:11:52;8.93;;;7.10;;
44456;SDS011;30159;49.316;8.558;2024-01-30T11:14:25;8.83;;;5.90;;
44456;SDS011;30159;49.316;8.558;2024-01-30T11:16:51;9.13;;;6.77;;
44456;SDS011;30159;49.316;8.558;2024-01-30T11:19:22;9.97;;;6.73;;
44456;SDS011;30159;49.316;8.558;2024-01-30T11:21:50;11.30;;;7.10;;
44456;SDS011;30159;49.316;8.558;2024-01-30T11:24:19;9.10;;;6.87;;
44456;SDS011;30159;49.316;8.558;2024-01-30T11:26:47;10.73;;;6.80;;
44456;SDS011;30159;49.316;8.558;2024-01-30T11:29:16;8.10;;;6.97;;
44456;SDS011;30159;49.316;8.558;2024-01-30T11:31:51;11.60;;;8.90;;
44456;SDS011;30159;49.316;8.558;2024-01-30T11:34:18;13.00;;;7.50;;
44456;SDS011;30159;49.316;8.558;2024-01-30T11:36:45;10.73;;;7.33;;
44456;SDS011;30159;49.316;8.558;2024-01-30T11:39:20;6.80;;;6.20;;
44456;SDS011;30159;49.316;8.558;2024-01-30T11:41:47;8.00;;;6.60;;
44456;SDS011;30159;49.316;8.558;2024-01-30T11:44:19;7.83;;;6.10;;
44456;SDS011;30159;49.316;8.558;2024-01-30T11:46:46;8.37;;;6.73;;
44456;SDS011;30159;49.316;8.558;2024-01-30T11:49:14;7.57;;;5.97;;
44456;SDS011;30159;49.316;8.558;2024-01-30T11:51:40;8.20;;;7.20;;
44456;SDS011;30159;49.316;8.558;2024-01-30T11:54:07;7.83;;;6.97;;
44456;SDS011;30159;49.316;8.558;2024-01-30T11:56:34;8.73;;;6.50;;
44456;SDS011;30159;49.316;8.558;2024-01-30T11:59:02;6.10;;;5.50;;
44456;SDS011;30159;49.316;8.558;2024-01-30T12:01:31;5.73;;;5.20;;
44456;SDS011;30159;49.316;8.558;2024-01-30T12:03:58;9.57;;;6.13;;
44456;SDS011;30159;49.316;8.558;2024-01-30T12:06:25;8.23;;;6.10;;
44456;SDS011;30159;49.316;8.558;2024-01-30T12:08:58;8.40;;;5.80;;
44456;SDS011;30159;49.316;8.558;2024-01-30T12:11:25;6.60;;;6.00;;
44456;SDS011;30159;49.316;8.558;2024-01-30T12:13:53;7.70;;;5.67;;
44456;SDS011;30159;49.316;8.558;2024-01-30T12:16:20;10.07;;;6.60;;
44456;SDS011;30159;49.316;8.558;2024-01-30T12:18:48;10.90;;;5.70;;
44456;SDS011;30159;49.316;8.558;2024-01-30T12:21:16;6.13;;;5.53;;
44456;SDS011;30159;49.316;8.558;2024-01-30T12:23:43;8.90;;;5.70;;
44456;SDS011;30159;49.316;8.558;2024-01-30T12:26:11;6.60;;;5.63;;
44456;SDS011;30159;49.316;8.558;2024-01-30T12:28:47;8.10;;;5.80;;
44456;SDS011;30159;49.316;8.558;2024-01-30T12:31:15;6.10;;;5.50;;
44456;SDS011;30159;49.316;8.558;2024-01-30T12:33:42;7.20;;;6.50;;
44456;SDS011;30159;49.316;8.558;2024-01-30T12:36:10;5.80;;;5.03;;
44456;SDS011;30159;49.316;8.558;2024-01-30T12:38:37;5.13;;;4.63;;
44456;SDS011;30159;49.316;8.558;2024-01-30T12:41:06;5.57;;;4.93;;
44456;SDS011;30159;49.316;8.558;2024-01-30T12:43:33;5.63;;;4.73;;
44456;SDS011;30159;49.316;8.558;2024-01-30T12:46:00;9.53;;;5.00;;
44456;SDS011;30159;49.316;8.558;2024-01-30T12:48:27;4.50;;;4.03;;
44456;SDS011;30159;49.316;8.558;2024-01-30T12:50:55;5.60;;;4.90;;
44456;SDS011;30159;49.316;8.558;2024-01-30T12:53:23;5.20;;;4.73;;
44456;SDS011;30159;49.316;8.558;2024-01-30T12:55:50;5.10;;;4.60;;
44456;SDS011;30159;49.316;8.558;2024-01-30T12:58:17;4.43;;;3.73;;
44456;SDS011;30159;49.316;8.558;2024-01-30T13:00:43;5.20;;;3.97;;
44456;SDS011;30159;49.316;8.558;2024-01-30T13:03:10;5.17;;;4.50;;
44456;SDS011;30159;49.316;8.558;2024-01-30T13:05:37;4.63;;;4.23;;
44456;SDS011;30159;49.316;8.558;2024-01-30T13:08:04;4.67;;;4.27;;
44456;SDS011;30159;49.316;8.558;2024-01-30T13:10:32;4.77;;;3.53;;
44456;SDS011;30159;49.316;8.558;2024-01-30T13:12:59;3.83;;;3.50;;
44456;SDS011;30159;49.316;8.558;2024-01-30T13:15:25;5.20;;;4.30;;
44456;SDS011;30159;49.316;8.558;2024-01-30T13:17:52;5.97;;;3.97;;
44456;SDS011;30159;49.316;8.558;2024-01-30T13:20:19;5.33;;;4.10;;
44456;SDS011;30159;49.316;8.558;2024-01-30T13:22:47;4.43;;;4.03;;
44456;SDS011;30159;49.316;8.558;2024-01-30T13:25:15;5.50;;;3.57;;
44456;SDS011;30159;49.316;8.558;2024-01-30T13:27:43;3.60;;;3.30;;
44456;SDS011;30159;49.316;8.558;2024-01-30T13:30:10;4.70;;;4.20;;
44456;SDS011;30159;49.316;8.558;2024-01-30T13:32:37;8.87;;;4.47;;
44456;SDS011;30159;49.316;8.558;2024-01-30T13:35:06;4.27;;;3.87;;
44456;SDS011;30159;49.316;8.558;2024-01-30T13:37:33;6.17;;;3.47;;
44456;SDS011;30159;49.316;8.558;2024-01-30T13:40:00;6.63;;;4.60;;
44456;SDS011;30159;49.316;8.558;2024-01-30T13:42:27;5.50;;;4.60;;
44456;SDS011;30159;49.316;8.558;2024-01-30T13:44:55;6.87;;;5.80;;
44456;SDS011;30159;49.316;8.558;2024-01-30T13:47:22;7.27;;;4.60;;
44456;SDS011;30159;49.316;8.558;2024-01-30T13:49:48;5.73;;;4.30;;
44456;SDS011;30159;49.316;8.558;2024-01-30T13:52:15;6.60;;;4.90;;
44456;SDS011;30159;49.316;8.558;2024-01-30T13:54:42;4.93;;;4.53;;
44456;SDS011;30159;49.316;8.558;2024-01-30T13:57:08;5.80;;;4.40;;
44456;SDS011;30159;49.316;8.558;2024-01-30T13:59:35;6.33;;;4.80;;
44456;SDS011;30159;49.316;8.558;2024-01-30T14:02:03;4.23;;;3.67;;
44456;SDS011;30159;49.316;8.558;2024-01-30T14:04:30;4.23;;;3.63;;
44456;SDS011;30159;49.316;8.558;2024-01-30T14:06:57;3.80;;;3.47;;
44456;SDS011;30159;49.316;8.558;2024-01-30T14:09:24;7.20;;;4.43;;
44456;SDS011;30159;49.316;8.558;2024-01-30T14:11:51;4.37;;;3.80;;
44456;SDS011;30159;49.316;8.558;2024-01-30T14:14:17;4.43;;;4.10;;
44456;SDS011;30159;49.316;8.558;2024-01-30T14:16:44;5.63;;;4.53;;
44456;SDS011;30159;49.316;8.558;2024-01-30T14:19:12;3.50;;;3.20;;
44456;SDS011;30159;49.316;8.558;2024-01-30T14:21:39;9.47;;;5.07;;
44456;SDS011;30159;49.316;8.558;2024-01-30T14:24:06;3.50;;;3.20;;
44456;SDS011;30159;49.316;8.558;2024-01-30T14:26:33;4.10;;;3.80;;
44456;SDS011;30159;49.316;8.558;2024-01-30T14:28:59;4.27;;;3.73;;
44456;SDS011;30159;49.316;8.558;2024-01-30T14:31:26;4.20;;;3.37;;
44456;SDS011;30159;49.316;8.558;2024-01-30T14:33:53;3.63;;;3.03;;
44456;SDS011;30159;49.316;8.558;2024-01-30T14:36:21;4.33;;;3.43;;
44456;SDS011;30159;49.316;8.558;2024-01-30T14:38:52;3.27;;;2.90;;
44456;SDS011;30159;49.316;8.558;2024-01-30T14:41:20;2.73;;;2.53;;
44456;SDS011;30159;49.316;8.558;2024-01-30T14:43:46;3.40;;;2.73;;
44456;SDS011;30159;49.316;8.558;2024-01-30T14:46:13;2.63;;;2.43;;